Time;durP1;ratioP1;P1;durP2;ratioP2;P2;SDS_P1;SDS_P2;PMS_P1;PMS_P2;Temp;Humidity;BMP_temperature;BMP_pressure;BME280_temperature;BME280_humidity;BME280_pressure;Samples;Min_cycle;Max_cycle;Signal;HPM_P1;HPM_P2
2022/08/23 00:01:34;;;;;;;7.80;6.40;;;;;;;18.05;80.91;100691.31;4981481;28;20038;-71
2022/08/23 00:04:04;;;;;;;9.43;6.97;;;;;;;17.94;81.72;100692.53;4981564;28;20042;-71
2022/08/23 00:06:29;;;;;;;10.35;7.32;;;;;;;17.89;83.18;100689.19;4979161;28;20417;-71
2022/08/23 00:08:55;;;;;;;7.82;6.07;;;;;;;17.84;84.62;100696.47;4981657;28;20042;-71
2022/08/23 00:11:33;;;;;;;8.60;7.05;;;;;;;17.77;86.58;100684.22;4981887;28;20401;-71
2022/08/23 00:14:02;;;;;;;8.13;6.50;;;;;;;17.73;85.77;100694.09;4977320;28;20093;-71
2022/08/23 00:16:27;;;;;;;8.13;7.18;;;;;;;17.67;86.24;100691.66;4980497;28;20031;-71
2022/08/23 00:18:53;;;;;;;8.93;6.75;;;;;;;17.67;87.29;100693.44;4981793;28;20042;-71
2022/08/23 00:21:19;;;;;;;6.97;6.35;;;;;;;17.63;87.77;100683.78;4982336;28;20527;-71
2022/08/23 00:23:44;;;;;;;8.50;6.68;;;;;;;17.53;88.36;100680.56;4980014;28;20057;-71
2022/08/23 00:26:10;;;;;;;8.35;7.50;;;;;;;17.49;87.87;100674.44;4980874;28;20421;-71
2022/08/23 00:28:35;;;;;;;8.40;7.38;;;;;;;17.44;88.62;100680.84;4982941;28;20416;-71
2022/08/23 00:31:01;;;;;;;8.63;7.47;;;;;;;17.37;89.31;100672.19;4965195;28;20405;-71
2022/08/23 00:33:27;;;;;;;9.15;7.22;;;;;;;17.36;89.87;100677.56;4981520;28;20374;-71
2022/08/23 00:35:52;;;;;;;8.18;7.38;;;;;;;17.39;88.80;100672.97;4980583;28;20038;-71
2022/08/23 00:38:18;;;;;;;8.70;7.13;;;;;;;17.42;88.12;100682.69;4983066;28;20110;-71
2022/08/23 00:40:46;;;;;;;8.38;7.03;;;;;;;17.44;89.20;100676.38;4980146;28;20043;-71
2022/08/23 00:49:32;;;;;;;11.40;6.57;;;;;;;17.58;87.94;100675.06;4978941;28;20042;-71
2022/08/23 00:52:07;;;;;;;8.07;7.13;;;;;;;17.67;87.60;100666.75;4978146;28;20490;-71
2022/08/23 00:54:35;;;;;;;8.45;6.32;;;;;;;17.69;86.62;100667.59;4976214;28;20031;-71
2022/08/23 00:57:04;;;;;;;7.53;6.55;;;;;;;17.71;86.68;100671.06;4981563;28;20178;-71
2022/08/23 00:59:30;;;;;;;8.80;6.10;;;;;;;17.73;85.97;100663.88;4983444;28;20041;-71
2022/08/23 01:01:56;;;;;;;9.57;6.60;;;;;;;17.83;86.07;100667.16;4976182;28;20038;-71
2022/08/23 01:04:33;;;;;;;6.88;6.20;;;;;;;17.89;85.65;100667.81;4979559;28;20042;-71
2022/08/23 01:07:07;;;;;;;7.45;6.65;;;;;;;17.86;86.10;100667.91;4980481;28;20047;-71
2022/08/23 01:09:32;;;;;;;7.00;6.28;;;;;;;17.80;86.48;100673.47;4981497;28;20548;-71
2022/08/23 01:12:04;;;;;;;7.35;6.65;;;;;;;17.78;86.55;100675.25;4984187;28;20125;-71
2022/08/23 01:14:39;;;;;;;7.80;7.00;;;;;;;17.75;86.47;100672.72;4984703;28;20050;-71
2022/08/23 01:17:09;;;;;;;8.27;6.90;;;;;;;17.79;87.83;100676.13;4983286;28;20093;-71
2022/08/23 01:19:39;;;;;;;7.05;6.32;;;;;;;17.85;86.29;100674.19;4984825;28;20109;-71
2022/08/23 01:22:21;;;;;;;7.07;6.40;;;;;;;17.88;86.23;100670.53;4982888;28;20195;-71
2022/08/23 01:24:47;;;;;;;6.63;6.00;;;;;;;17.85;86.94;100671.50;4998979;28;20210;-72
2022/08/23 01:27:13;;;;;;;7.15;6.00;;;;;;;17.91;86.54;100665.94;4982520;28;20129;-71
2022/08/23 01:29:40;;;;;;;10.10;7.05;;;;;;;17.96;86.46;100664.00;4962892;28;20039;-71
2022/08/23 01:32:08;;;;;;;8.13;7.32;;;;;;;18.00;86.00;100669.22;4983520;28;20034;-71
2022/08/23 01:34:35;;;;;;;7.95;7.15;;;;;;;18.03;85.36;100655.78;4968623;28;20030;-71
2022/08/23 01:37:04;;;;;;;8.48;6.43;;;;;;;18.06;85.64;100655.69;4982875;28;20115;-71
2022/08/23 01:39:30;;;;;;;7.65;7.05;;;;;;;18.05;85.25;100656.59;4962798;28;20035;-71
2022/08/23 01:41:56;;;;;;;8.07;6.72;;;;;;;18.04;85.38;100654.84;4984984;28;20037;-71
2022/08/23 01:44:21;;;;;;;7.38;6.68;;;;;;;18.00;85.61;100654.09;4967620;28;20039;-71
2022/08/23 01:46:47;;;;;;;8.85;6.65;;;;;;;18.01;85.38;100669.19;4980477;28;20404;-71
2022/08/23 01:49:13;;;;;;;8.10;6.53;;;;;;;17.90;86.67;100658.00;4984940;28;20110;-71
2022/08/23 01:51:40;;;;;;;8.43;7.60;;;;;;;17.89;86.54;100659.81;4981998;28;20064;-71
2022/08/23 01:54:06;;;;;;;7.35;6.63;;;;;;;17.86;86.93;100670.56;4980849;28;20039;-71
2022/08/23 01:56:32;;;;;;;7.90;7.07;;;;;;;17.86;87.49;100664.38;4982700;28;20121;-71
2022/08/23 01:58:58;;;;;;;7.88;6.90;;;;;;;17.88;87.25;100665.19;4967380;28;20039;-71
2022/08/23 02:01:28;;;;;;;8.10;6.45;;;;;;;17.84;88.06;100669.78;4982415;28;20051;-71
2022/08/23 02:03:54;;;;;;;11.13;6.90;;;;;;;17.79;88.35;100666.38;4962629;28;20586;-71
2022/08/23 02:06:20;;;;;;;9.95;6.32;;;;;;;17.83;88.05;100668.00;5000690;28;20413;-71
2022/08/23 02:09:02;;;;;;;8.25;6.68;;;;;;;17.71;88.99;100663.94;4983279;28;20169;-71
2022/08/23 02:11:32;;;;;;;9.15;6.78;;;;;;;17.66;89.89;100660.56;4981150;28;20089;-71
2022/08/23 02:14:00;;;;;;;9.60;7.25;;;;;;;17.61;90.33;100661.63;4984105;28;20038;-71
2022/08/23 02:16:34;;;;;;;8.13;6.88;;;;;;;17.55;91.26;100648.47;4988113;28;20053;-71
2022/08/23 02:19:01;;;;;;;11.00;6.97;;;;;;;17.48;91.75;100648.69;4980195;28;20039;-71
2022/08/23 02:21:30;;;;;;;7.03;6.00;;;;;;;17.45;91.83;100642.59;4984566;28;20045;-70
2022/08/23 02:24:02;;;;;;;7.05;6.13;;;;;;;17.45;91.87;100642.59;4968894;28;20105;-71
2022/08/23 02:26:27;;;;;;;;;;;;;;;17.41;92.42;100647.13;4984290;28;20042;-71
2022/08/23 02:28:52;;;;;;;7.78;6.93;;;;;;;17.39;92.61;100648.09;4992134;28;19921;-71
2022/08/23 02:31:20;;;;;;;7.50;6.68;;;;;;;17.42;92.70;100651.56;4985195;28;20519;-72
2022/08/23 02:33:45;;;;;;;11.95;6.70;;;;;;;17.43;92.60;100653.31;4986322;28;20039;-70
2022/08/23 02:36:11;;;;;;;8.05;6.47;;;;;;;17.40;92.48;100653.41;4982633;28;20533;-71
2022/08/23 02:38:37;;;;;;;8.57;6.60;;;;;;;17.40;92.31;100658.75;4981139;28;20043;-72
2022/08/23 02:41:03;;;;;;;9.13;6.93;;;;;;;17.28;94.04;100653.78;4975291;28;20058;-71
2022/08/23 02:43:30;;;;;;;11.43;7.93;;;;;;;17.20;94.84;100653.16;4984971;28;20034;-72
2022/08/23 02:45:55;;;;;;;8.05;6.55;;;;;;;17.20;95.23;100651.34;4982482;28;20042;-72
2022/08/23 02:48:21;;;;;;;9.43;7.00;;;;;;;17.20;95.22;100650.50;4975075;28;20097;-71
2022/08/23 02:51:02;;;;;;;7.75;6.90;;;;;;;17.18;95.12;100663.00;4964408;28;20457;-71
2022/08/23 02:53:28;;;;;;;7.72;6.75;;;;;;;17.18;96.68;100658.53;4978556;28;20417;-71
2022/08/23 02:55:54;;;;;;;7.75;6.93;;;;;;;17.17;97.00;100656.78;4982625;28;20034;-71
2022/08/23 02:58:19;;;;;;;8.43;7.50;;;;;;;17.16;97.57;100660.41;4967276;28;20053;-71
2022/08/23 03:00:46;;;;;;;8.98;8.07;;;;;;;17.24;97.85;100662.81;4981345;28;20031;-71
2022/08/23 03:03:12;;;;;;;7.28;6.57;;;;;;;17.29;97.37;100666.19;4964891;28;20042;-71
2022/08/23 03:05:37;;;;;;;7.65;6.78;;;;;;;17.29;96.81;100669.75;4991999;28;20409;-71
2022/08/23 03:08:04;;;;;;;6.88;6.28;;;;;;;17.31;96.91;100675.88;4973809;28;20045;-71
2022/08/23 03:10:36;;;;;;;;;;;;;;;17.33;97.36;100672.31;4980001;28;20038;-71
2022/08/23 03:13:03;;;;;;;7.22;6.40;;;;;;;17.40;96.93;100676.53;4980777;28;20004;-71
2022/08/23 03:15:28;;;;;;;9.25;7.18;;;;;;;17.48;96.20;100671.84;4977779;28;20049;-71
2022/08/23 03:17:54;;;;;;;11.10;7.00;;;;;;;17.51;94.90;100672.59;4977506;28;20023;-71
2022/08/23 03:20:19;;;;;;;8.20;6.93;;;;;;;17.51;95.42;100679.72;4971480;28;20824;-71
2022/08/23 03:22:45;;;;;;;7.13;6.43;;;;;;;17.51;95.43;100683.28;4976497;28;20608;-71
2022/08/23 03:25:11;;;;;;;11.85;7.03;;;;;;;17.52;95.13;100677.00;4980227;28;20061;-71
2022/08/23 03:27:53;;;;;;;9.10;7.47;;;;;;;17.50;95.17;100681.53;4975206;28;20047;-71
2022/08/23 03:30:19;;;;;;;8.40;7.50;;;;;;;17.51;94.88;100682.41;4970409;28;20038;-71
2022/08/23 03:32:46;;;;;;;7.40;6.70;;;;;;;17.57;94.80;100686.66;4963004;28;20039;-71
2022/08/23 03:35:12;;;;;;;10.00;7.35;;;;;;;17.55;94.70;100684.03;4982722;28;20121;-71
2022/08/23 03:37:38;;;;;;;9.25;7.72;;;;;;;17.57;94.64;100687.53;4964661;28;20034;-71
2022/08/23 03:40:06;;;;;;;8.35;7.65;;;;;;;17.62;94.36;100696.25;4982066;28;20452;-71
2022/08/23 03:42:32;;;;;;;10.32;7.18;;;;;;;17.53;95.13;100696.56;4966161;28;20066;-71
2022/08/23 03:44:57;;;;;;;8.48;7.05;;;;;;;17.63;95.15;100699.78;4981964;28;20062;-71
2022/08/23 03:47:23;;;;;;;8.95;8.05;;;;;;;17.64;95.55;100696.22;4983734;28;20038;-71
2022/08/23 03:49:48;;;;;;;7.97;7.22;;;;;;;17.67;95.08;100698.78;4979510;28;20089;-71
2022/08/23 03:52:14;;;;;;;12.98;7.43;;;;;;;17.70;94.50;100693.34;4981966;28;20038;-71
2022/08/23 03:54:39;;;;;;;8.73;7.93;;;;;;;17.69;94.38;100697.81;4964258;28;20030;-71
2022/08/23 03:57:08;;;;;;;8.73;7.93;;;;;;;17.55;94.98;100693.84;4978798;28;20030;-71
2022/08/23 03:59:37;;;;;;;8.27;7.07;;;;;;;17.51;95.74;100699.28;4979251;28;20118;-71
2022/08/23 04:02:06;;;;;;;9.48;7.57;;;;;;;17.50;95.83;100700.22;4973844;28;20034;-71
2022/08/23 04:04:32;;;;;;;9.00;7.18;;;;;;;17.56;95.85;100701.81;4982757;28;20393;-71
2022/08/23 04:07:20;;;;;;;9.55;7.82;;;;;;;17.52;95.52;100695.69;4966174;28;20046;-71
2022/08/23 04:09:46;;;;;;;7.93;7.10;;;;;;;17.52;95.07;100698.34;4971979;28;20030;-71
2022/08/23 04:12:12;;;;;;;8.57;7.75;;;;;;;17.55;95.01;100700.03;4980311;28;20096;-71
2022/08/23 04:14:38;;;;;;;7.78;7.15;;;;;;;17.51;95.93;100701.94;4965094;28;20096;-72
2022/08/23 04:17:04;;;;;;;8.63;7.93;;;;;;;17.50;95.18;100697.53;4963006;28;20498;-71
2022/08/23 04:19:30;;;;;;;9.25;8.40;;;;;;;17.51;95.61;100709.09;4979708;28;20591;-71
2022/08/23 04:21:59;;;;;;;8.70;7.90;;;;;;;17.49;95.17;100713.59;4976995;28;20473;-71
2022/08/23 04:24:30;;;;;;;9.98;7.32;;;;;;;17.43;95.56;100706.66;4969262;28;20037;-72
2022/08/23 04:26:55;;;;;;;7.95;7.18;;;;;;;17.46;96.18;100706.56;4964587;28;20630;-71
2022/08/23 04:29:21;;;;;;;9.25;7.70;;;;;;;17.57;95.38;100708.88;4963839;28;20031;-71
2022/08/23 04:31:47;;;;;;;9.30;8.40;;;;;;;17.62;94.28;100706.06;4981498;28;20030;-72
2022/08/23 04:34:15;;;;;;;9.43;7.60;;;;;;;17.61;94.66;100705.19;4965408;28;20050;-71
2022/08/23 04:36:42;;;;;;;9.98;8.13;;;;;;;17.64;95.34;100706.91;4980506;28;20523;-71
2022/08/23 04:39:08;;;;;;;9.45;8.43;;;;;;;17.59;94.57;100707.03;4960007;28;20090;-71
2022/08/23 04:44:19;;;;;;;11.70;10.68;;;;;;;17.55;95.65;100717.84;4963871;28;20035;-73
2022/08/23 04:46:47;;;;;;;11.35;8.32;;;;;;;17.49;96.49;100714.47;4992320;28;20137;-74
2022/08/23 04:49:13;;;;;;;11.25;8.82;;;;;;;17.47;96.32;100715.44;4977691;28;20122;-74
2022/08/23 04:51:39;;;;;;;10.50;9.40;;;;;;;17.46;95.89;100717.22;4990662;28;20126;-73
2022/08/23 04:54:06;;;;;;;8.57;7.72;;;;;;;17.51;95.79;100714.41;4973405;28;20580;-74
2022/08/23 04:57:01;;;;;;;9.68;8.77;;;;;;;17.50;95.87;100718.88;4977017;28;20038;-73
2022/08/23 04:59:32;;;;;;;9.83;8.87;;;;;;;17.50;95.78;100718.00;4989753;28;20031;-74
2022/08/23 05:01:58;;;;;;;10.68;8.48;;;;;;;17.52;95.67;100711.69;4967636;28;20078;-74
2022/08/23 05:04:23;;;;;;;8.02;7.22;;;;;;;17.50;95.37;100713.56;4977765;28;20505;-74
2022/08/23 05:06:50;;;;;;;11.63;8.68;;;;;;;17.54;95.55;100714.31;4977615;28;20027;-72
2022/08/23 05:09:16;;;;;;;9.73;8.60;;;;;;;17.52;95.48;100717.03;4985122;28;20045;-71
2022/08/23 05:11:41;;;;;;;10.70;9.68;;;;;;;17.57;95.13;100719.56;4965240;28;20035;-71
2022/08/23 05:14:07;;;;;;;9.00;8.13;;;;;;;17.58;95.73;100717.75;4980369;28;20490;-71
2022/08/23 05:16:32;;;;;;;8.70;7.80;;;;;;;17.63;95.48;100723.81;4983933;28;20516;-71
2022/08/23 05:19:03;;;;;;;9.38;8.52;;;;;;;17.61;95.58;100720.34;4984162;28;20057;-71
2022/08/23 05:21:31;;;;;;;11.77;8.20;;;;;;;17.63;95.61;100714.03;4979887;28;20587;-71
2022/08/23 05:23:56;;;;;;;9.35;8.40;;;;;;;17.72;94.84;100723.53;4986749;28;20129;-71
2022/08/23 05:26:24;;;;;;;9.35;8.45;;;;;;;17.66;94.38;100719.28;4983749;28;20034;-71
2022/08/23 05:28:49;;;;;;;9.65;8.52;;;;;;;17.65;94.80;100722.84;4968219;28;20085;-71
2022/08/23 05:31:22;;;;;;;9.15;8.25;;;;;;;17.69;95.13;100712.97;4984691;28;20523;-71
2022/08/23 05:33:50;;;;;;;13.70;8.48;;;;;;;17.66;95.21;100729.06;4980892;28;20031;-71
2022/08/23 05:36:22;;;;;;;11.70;9.48;;;;;;;17.73;94.50;100719.94;4983326;28;20592;-72
2022/08/23 05:38:49;;;;;;;9.52;8.52;;;;;;;17.71;94.23;100727.09;4969284;28;20140;-71
2022/08/23 05:41:16;;;;;;;10.30;9.13;;;;;;;17.74;94.72;100729.69;4981820;28;20117;-71
2022/08/23 05:43:42;;;;;;;10.32;8.50;;;;;;;17.80;94.59;100729.53;4976417;28;20039;-71
2022/08/23 05:46:14;;;;;;;13.20;8.95;;;;;;;17.83;94.33;100736.56;4981186;28;20041;-72
2022/08/23 05:48:47;;;;;;;9.65;8.00;;;;;;;17.85;94.13;100732.03;4992547;28;20030;-71
2022/08/23 05:51:21;;;;;;;9.40;8.50;;;;;;;17.93;93.95;100732.66;4977218;28;20041;-71
2022/08/23 05:53:48;;;;;;;9.02;8.13;;;;;;;17.98;93.50;100735.19;4979561;28;20496;-71
2022/08/23 05:56:26;;;;;;;10.93;9.75;;;;;;;17.88;94.13;100746.16;4982748;28;20035;-71
2022/08/23 05:58:54;;;;;;;10.20;9.30;;;;;;;17.95;93.26;100747.72;4981197;28;20068;-71
2022/08/23 06:01:21;;;;;;;10.10;9.18;;;;;;;17.93;93.90;100754.88;4984404;28;20034;-72
2022/08/23 06:03:48;;;;;;;11.05;9.20;;;;;;;17.99;92.78;100758.28;4977372;28;20436;-72
2022/08/23 06:06:14;;;;;;;11.60;9.07;;;;;;;17.95;92.96;100758.38;4977380;28;20122;-71
2022/08/23 06:08:45;;;;;;;11.15;9.35;;;;;;;18.03;92.81;100749.25;4983027;28;20128;-71
2022/08/23 06:11:14;;;;;;;10.57;9.48;;;;;;;18.06;92.62;100751.81;4982935;28;20026;-71
2022/08/23 06:13:44;;;;;;;10.02;9.05;;;;;;;18.11;92.78;100753.41;4979410;28;20523;-71
2022/08/23 06:16:12;;;;;;;9.25;8.38;;;;;;;18.05;92.02;100761.63;4975098;28;20027;-71
2022/08/23 06:18:38;;;;;;;10.27;8.88;;;;;;;18.00;92.94;100755.56;4982218;28;20034;-71
2022/08/23 06:21:39;;;;;;;9.57;8.77;;;;;;;17.88;93.65;100764.84;4979984;28;20042;-71
2022/08/23 06:24:05;;;;;;;10.02;9.00;;;;;;;17.72;94.61;100764.44;4981198;28;20050;-71
2022/08/23 06:26:38;;;;;;;10.68;9.57;;;;;;;17.74;94.89;100775.06;4980426;28;20126;-71
2022/08/23 06:29:07;;;;;;;9.80;8.90;;;;;;;17.69;96.00;100769.00;4980582;28;20034;-72
2022/08/23 06:31:48;;;;;;;10.27;8.93;;;;;;;17.63;97.27;100767.41;4970953;28;20067;-72
2022/08/23 06:34:31;;;;;;;10.80;8.60;;;;;;;17.63;98.18;100769.19;4982782;28;20034;-71
2022/08/23 06:37:16;;;;;;;10.20;9.20;;;;;;;17.57;98.49;100774.72;4981591;28;20027;-71
2022/08/23 06:40:00;;;;;;;9.98;8.18;;;;;;;17.55;98.80;100768.56;4981322;28;20045;-72
2022/08/23 06:42:52;;;;;;;10.05;8.75;;;;;;;17.61;99.74;100768.38;4983568;28;20057;-71
2022/08/23 06:45:23;;;;;;;9.80;8.73;;;;;;;17.68;98.18;100764.56;4978767;28;20088;-72
2022/08/23 06:47:49;;;;;;;10.13;9.07;;;;;;;17.68;98.02;100767.25;4982352;28;20080;-71
2022/08/23 06:50:14;;;;;;;13.43;10.15;;;;;;;17.77;97.38;100772.31;4988744;28;20049;-72
2022/08/23 06:52:58;;;;;;;10.50;9.43;;;;;;;17.83;96.67;100774.81;4982175;28;20552;-71
2022/08/23 06:55:34;;;;;;;10.63;9.73;;;;;;;17.91;95.73;100772.75;4989786;28;20126;-72
2022/08/23 06:58:12;;;;;;;11.52;10.13;;;;;;;17.91;96.26;100770.09;4988489;28;20096;-72
2022/08/23 07:01:34;;;;;;;12.35;9.80;;;;;;;18.01;96.60;100765.31;4987304;23;20050;-74
2022/08/23 07:04:05;;;;;;;9.93;8.93;;;;;;;18.09;96.20;100762.41;5007654;28;20035;-74
2022/08/23 07:06:49;;;;;;;11.52;10.43;;;;;;;18.14;95.02;100768.47;4992622;28;20100;-74
2022/08/23 07:09:17;;;;;;;11.85;10.25;;;;;;;18.10;95.08;100769.47;5007851;28;20045;-74
2022/08/23 07:11:43;;;;;;;10.95;9.85;;;;;;;18.05;95.56;100776.75;4985053;28;20050;-74
2022/08/23 07:14:11;;;;;;;12.35;9.57;;;;;;;18.10;96.58;100773.03;4982272;28;20030;-74
2022/08/23 07:16:40;;;;;;;13.50;12.10;;;;;;;18.17;95.38;100779.03;4982527;28;20037;-74
2022/08/23 07:19:07;;;;;;;11.85;10.80;;;;;;;18.18;96.80;100775.44;4977561;28;20038;-74
2022/08/23 07:21:33;;;;;;;11.65;10.55;;;;;;;18.23;96.63;100777.94;4976859;28;20192;-74
2022/08/23 07:23:59;;;;;;;13.20;10.15;;;;;;;18.35;96.05;100778.41;4973765;28;20508;-74
2022/08/23 07:26:24;;;;;;;11.35;10.27;;;;;;;18.49;95.46;100782.41;4976490;28;20113;-74
2022/08/23 07:28:51;;;;;;;11.25;10.25;;;;;;;18.62;94.17;100787.25;4972905;28;20402;-75
2022/08/23 07:31:25;;;;;;;11.98;10.88;;;;;;;18.77;94.04;100783.19;4977586;28;20045;-74
2022/08/23 07:33:52;;;;;;;11.55;10.45;;;;;;;18.92;92.03;100783.59;4966275;28;20447;-74
2022/08/23 07:36:21;;;;;;;11.35;9.70;;;;;;;19.07;91.90;100788.34;4968991;28;20022;-75
2022/08/23 07:38:48;;;;;;;13.48;11.38;;;;;;;19.29;91.98;100788.41;4968437;28;20406;-74
2022/08/23 07:41:16;;;;;;;13.38;12.27;;;;;;;19.47;89.54;100787.72;4980786;28;20042;-75
2022/08/23 07:43:42;;;;;;;12.43;11.10;;;;;;;19.50;89.02;100789.41;4982300;28;20117;-75
2022/08/23 07:46:10;;;;;;;17.10;11.73;;;;;;;19.57;88.90;100790.91;4979161;28;20034;-74
2022/08/23 07:48:36;;;;;;;12.98;11.65;;;;;;;19.65;88.58;100788.81;4974928;28;20501;-74
2022/08/23 07:51:12;;;;;;;12.18;11.05;;;;;;;19.81;89.15;100790.91;4979458;28;20018;-75
2022/08/23 07:53:38;;;;;;;12.35;11.05;;;;;;;20.02;88.90;100795.38;4975627;28;20055;-74
2022/08/23 07:56:10;;;;;;;11.80;10.63;;;;;;;20.30;87.78;100792.44;4976233;28;20113;-74
2022/08/23 07:58:54;;;;;;;13.18;12.02;;;;;;;20.62;85.64;100795.56;4971172;28;20081;-74
2022/08/23 08:01:46;;;;;;;13.63;11.88;;;;;;;20.71;84.40;100797.81;4968516;28;20034;-75
2022/08/23 08:04:11;;;;;;;13.85;11.98;;;;;;;20.61;82.92;100799.16;4976688;28;20566;-74
2022/08/23 08:06:42;;;;;;;13.98;11.35;;;;;;;20.63;83.92;100799.09;4974516;28;20086;-74
2022/08/23 08:09:09;;;;;;;13.23;12.02;;;;;;;20.54;82.74;100800.34;4969705;28;20409;-74
2022/08/23 08:11:36;;;;;;;13.13;10.93;;;;;;;20.43;83.89;100800.78;4971070;28;20208;-75
2022/08/23 08:14:07;;;;;;;13.75;12.55;;;;;;;20.57;83.27;100800.25;4980492;28;20065;-75
2022/08/23 08:16:41;;;;;;;13.80;12.35;;;;;;;20.48;85.02;100798.78;4961460;28;20425;-75
2022/08/23 08:19:10;;;;;;;16.67;15.07;;;;;;;20.42;83.60;100804.41;4980413;28;20081;-75
2022/08/23 08:21:54;;;;;;;14.90;12.52;;;;;;;20.31;84.72;100801.34;4977615;28;20129;-74
2022/08/23 08:24:43;;;;;;;14.82;13.48;;;;;;;20.19;85.35;100793.78;4957832;28;20042;-74
2022/08/23 08:27:11;;;;;;;14.75;12.95;;;;;;;20.32;85.37;100795.03;4963455;28;20065;-75
2022/08/23 08:29:36;;;;;;;15.50;14.00;;;;;;;20.30;85.76;100794.22;4979438;28;20030;-75
2022/08/23 08:32:02;;;;;;;13.05;11.77;;;;;;;20.49;86.24;100794.31;4979844;28;20565;-74
2022/08/23 08:34:27;;;;;;;13.27;11.52;;;;;;;20.72;84.25;100798.69;4975391;28;20410;-74
2022/08/23 08:36:55;;;;;;;12.73;11.20;;;;;;;20.86;84.08;100798.97;4961895;28;20450;-75
2022/08/23 08:39:26;;;;;;;14.02;12.52;;;;;;;20.95;84.03;100793.16;4961776;28;21016;-75
2022/08/23 08:42:18;;;;;;;14.52;13.25;;;;;;;21.00;81.57;100796.53;4976453;28;20038;-75
2022/08/23 08:44:51;;;;;;;14.73;13.43;;;;;;;20.84;81.79;100800.84;4978975;28;20050;-74
2022/08/23 08:47:33;;;;;;;15.23;13.90;;;;;;;20.92;81.82;100800.50;4977267;28;20410;-75
2022/08/23 08:50:11;;;;;;;14.18;12.45;;;;;;;20.88;82.36;100801.56;4963724;28;20049;-74
2022/08/23 08:52:42;;;;;;;20.33;18.77;;;;;;;20.81;81.58;100798.28;4979026;28;20141;-75
2022/08/23 08:55:19;;;;;;;14.00;12.55;;;;;;;20.76;82.15;100794.94;4978928;28;20073;-74
2022/08/23 08:57:48;;;;;;;13.93;12.30;;;;;;;21.09;81.51;100797.03;4979839;28;20045;-75
2022/08/23 09:00:20;;;;;;;15.35;13.73;;;;;;;21.40;79.46;100794.69;4977056;28;20059;-75
2022/08/23 09:02:46;;;;;;;14.27;13.02;;;;;;;21.60;79.61;100793.78;4975487;28;20513;-75
2022/08/23 09:05:31;;;;;;;15.70;13.15;;;;;;;21.86;76.85;100787.13;4980411;28;20084;-75
2022/08/23 09:08:26;;;;;;;13.68;12.57;;;;;;;22.10;75.42;100773.44;4976354;28;20055;-75
2022/08/23 09:10:54;;;;;;;14.32;13.07;;;;;;;22.10;74.51;100778.81;4978956;28;20032;-75
2022/08/23 09:13:39;;;;;;;14.95;13.65;;;;;;;22.29;73.06;100781.47;4959717;28;20038;-75
2022/08/23 09:16:21;;;;;;;12.15;11.25;;;;;;;22.35;72.11;100782.97;4948669;28;20045;-75
2022/08/23 09:18:48;;;;;;;18.17;12.85;;;;;;;22.33;71.35;100784.88;4962583;28;20135;-74
2022/08/23 09:21:14;;;;;;;12.38;11.38;;;;;;;22.69;71.81;100791.03;4980235;28;20043;-75
2022/08/23 09:23:45;;;;;;;13.27;12.07;;;;;;;22.70;69.68;100790.09;4977149;28;20031;-75
2022/08/23 09:26:25;;;;;;;14.02;12.85;;;;;;;22.56;70.99;100776.50;4992071;28;20412;-75
2022/08/23 09:29:04;;;;;;;;;;;;;;;22.66;70.86;100788.53;4972252;28;20050;-74
2022/08/23 09:32:00;;;;;;;12.20;10.98;;;;;;;22.80;68.22;100785.09;4994273;28;19929;-75
2022/08/23 09:34:36;;;;;;;12.88;11.73;;;;;;;22.95;67.92;100788.75;4974731;28;20097;-75
2022/08/23 09:37:11;;;;;;;12.63;11.68;;;;;;;23.25;66.81;100790.81;4987701;28;21392;-75
2022/08/23 09:39:48;;;;;;;12.45;11.45;;;;;;;23.23;66.23;100784.63;4982666;28;20034;-75
2022/08/23 09:42:35;;;;;;;12.70;11.63;;;;;;;23.38;66.62;100783.78;4983499;28;20059;-75
2022/08/23 09:45:04;;;;;;;12.90;11.95;;;;;;;23.48;64.71;100786.84;4994015;28;20041;-75
2022/08/23 09:47:39;;;;;;;10.23;9.45;;;;;;;23.45;64.42;100784.28;4983780;28;20034;-75
2022/08/23 09:50:24;;;;;;;24.90;23.35;;;;;;;23.66;62.87;100784.91;4986012;28;20038;-75
2022/08/23 09:53:02;;;;;;;11.50;9.40;;;;;;;23.74;63.04;100785.41;4994597;28;20512;-75
2022/08/23 09:55:37;;;;;;;11.50;10.65;;;;;;;23.67;62.77;100781.28;4981087;28;20035;-75
2022/08/23 09:58:14;;;;;;;11.30;9.70;;;;;;;23.51;63.68;100775.88;4980659;28;20062;-75
2022/08/23 10:00:40;;;;;;;11.00;10.25;;;;;;;23.50;63.36;100779.53;4978502;28;20034;-75
2022/08/23 10:03:28;;;;;;;10.35;9.35;;;;;;;23.59;62.18;100773.63;4987612;28;20035;-75
2022/08/23 10:06:00;;;;;;;10.65;9.73;;;;;;;23.67;62.02;100781.28;4980251;28;20084;-75
2022/08/23 10:08:35;;;;;;;11.52;10.60;;;;;;;23.25;62.39;100791.66;4979922;28;20034;-76
2022/08/23 10:11:15;;;;;;;10.73;9.88;;;;;;;23.26;63.05;100782.63;4982525;28;20034;-75
2022/08/23 10:13:42;;;;;;;10.70;9.80;;;;;;;23.40;62.81;100779.19;4979614;28;20030;-75
2022/08/23 10:16:35;;;;;;;9.00;8.30;;;;;;;23.19;62.25;100784.81;4980986;28;20513;-76
2022/08/23 10:19:33;;;;;;;10.63;9.75;;;;;;;23.12;62.29;100786.06;4979499;28;20026;-75
2022/08/23 10:22:14;;;;;;;12.70;8.68;;;;;;;23.13;61.92;100782.44;4966168;28;20054;-75
2022/08/23 10:25:06;;;;;;;9.77;9.05;;;;;;;23.15;60.92;100785.03;4972022;28;20038;-75
2022/08/23 10:31:00;;;;;;;10.40;9.55;;;;;;;23.30;61.75;100794.13;4976626;28;20058;-75
2022/08/23 10:33:52;;;;;;;10.32;9.63;;;;;;;23.33;60.40;100794.81;4971118;28;20516;-75
2022/08/23 10:36:27;;;;;;;14.70;13.75;;;;;;;23.63;60.05;100792.25;4979567;28;20118;-75
2022/08/23 10:38:57;;;;;;;10.73;10.00;;;;;;;23.55;59.50;100794.50;4983609;28;20054;-75
2022/08/23 10:41:54;;;;;;;11.68;10.73;;;;;;;23.45;59.10;100793.28;4984113;28;20510;-75
2022/08/23 10:44:59;;;;;;;10.00;9.13;;;;;;;23.38;59.01;100797.25;4964396;28;20043;-75
2022/08/23 10:47:36;;;;;;;8.82;8.10;;;;;;;23.29;60.23;100789.66;4980873;28;20122;-75
2022/08/23 10:50:18;;;;;;;10.48;9.07;;;;;;;23.14;61.90;100799.47;4965060;28;20654;-75
2022/08/23 10:52:56;;;;;;;10.18;9.48;;;;;;;23.24;61.98;100799.81;4967797;28;20035;-75
2022/08/23 10:55:42;;;;;;;11.27;10.52;;;;;;;23.29;62.23;100795.03;4981780;28;20031;-75
2022/08/23 10:58:14;;;;;;;12.02;11.10;;;;;;;23.35;60.27;100797.44;4967581;28;20026;-75
2022/08/23 11:00:41;;;;;;;10.35;9.32;;;;;;;23.12;61.03;100788.78;4983006;28;20034;-75
2022/08/23 11:03:27;;;;;;;11.70;10.80;;;;;;;22.94;62.81;100795.97;4979012;28;20079;-75
2022/08/23 11:06:24;;;;;;;12.25;10.95;;;;;;;23.04;61.81;100796.41;4962964;28;20118;-75
2022/08/23 11:09:17;;;;;;;12.00;11.02;;;;;;;22.99;63.37;100794.91;4980384;28;20098;-75
2022/08/23 11:12:20;;;;;;;18.23;14.98;;;;;;;23.39;61.05;100797.16;4959857;28;20057;-75
2022/08/23 11:15:08;;;;;;;10.50;9.80;;;;;;;23.60;59.78;100795.06;4964726;28;20076;-75
2022/08/23 11:17:57;;;;;;;11.30;10.30;;;;;;;23.61;60.26;100794.13;4975154;28;20034;-75
2022/08/23 11:20:48;;;;;;;9.85;9.15;;;;;;;23.70;59.89;100791.88;4976803;28;20031;-75
2022/08/23 11:23:39;;;;;;;9.15;8.40;;;;;;;23.85;58.99;100791.03;4971850;28;20086;-75
2022/08/23 11:26:09;;;;;;;10.15;9.23;;;;;;;23.75;59.59;100787.13;4968166;28;20749;-75
2022/08/23 11:28:43;;;;;;;10.50;9.60;;;;;;;23.62;60.28;100793.16;4983015;28;20030;-75
2022/08/23 11:31:21;;;;;;;13.07;10.30;;;;;;;23.55;60.49;100790.91;4979349;28;20085;-75
2022/08/23 11:33:52;;;;;;;11.65;10.75;;;;;;;23.54;60.12;100795.44;4972262;28;20668;-75
2022/08/23 11:36:23;;;;;;;11.60;10.60;;;;;;;23.35;61.30;100800.13;4979169;28;20034;-75
2022/08/23 11:38:49;;;;;;;14.20;13.05;;;;;;;23.55;61.37;100794.50;4962348;28;20035;-75
2022/08/23 11:41:19;;;;;;;11.65;10.80;;;;;;;23.53;61.34;100796.41;4966908;28;20110;-75
2022/08/23 11:43:48;;;;;;;17.25;15.90;;;;;;;23.60;61.38;100796.91;4981838;28;20038;-75
2022/08/23 11:46:25;;;;;;;12.35;11.18;;;;;;;23.60;62.55;100799.59;4983922;28;20030;-75
2022/08/23 11:49:01;;;;;;;;;;;;;;;23.41;63.94;100807.84;4982112;28;20129;-76
2022/08/23 11:51:35;;;;;;;43.08;40.33;;;;;;;23.41;63.14;100803.31;4980616;28;19914;-75
2022/08/23 11:54:19;;;;;;;11.23;10.35;;;;;;;23.36;64.56;100809.91;4983139;28;20035;-76